sensor_id;sensor_type;location;lat;lon;timestamp;temperature;humidity
11963;DHT22;62678;52.130;5.584;2022-09-28T00:01:52;8.40;99.90
11963;DHT22;62678;52.130;5.584;2022-09-28T00:04:19;8.30;99.90
11963;DHT22;62678;52.130;5.584;2022-09-28T00:06:46;8.40;99.90
11963;DHT22;62678;52.130;5.584;2022-09-28T00:09:13;8.40;99.90
11963;DHT22;62678;52.130;5.584;2022-09-28T00:11:41;8.30;99.90
11963;DHT22;62678;52.130;5.584;2022-09-28T00:14:10;8.30;99.90
11963;DHT22;62678;52.130;5.584;2022-09-28T00:16:41;8.20;99.90
11963;DHT22;62678;52.130;5.584;2022-09-28T00:19:08;8.30;99.90
11963;DHT22;62678;52.130;5.584;2022-09-28T00:21:37;8.30;99.90
11963;DHT22;62678;52.130;5.584;2022-09-28T00:24:05;8.20;99.90
11963;DHT22;62678;52.130;5.584;2022-09-28T00:26:42;8.10;99.90
11963;DHT22;62678;52.130;5.584;2022-09-28T00:29:16;8.10;99.90
11963;DHT22;62678;52.130;5.584;2022-09-28T00:31:43;8.00;99.90
11963;DHT22;62678;52.130;5.584;2022-09-28T00:34:10;8.00;99.90
11963;DHT22;62678;52.130;5.584;2022-09-28T00:36:41;8.00;99.90
11963;DHT22;62678;52.130;5.584;2022-09-28T00:39:08;8.00;99.90
11963;DHT22;62678;52.130;5.584;2022-09-28T00:41:36;7.90;99.90
11963;DHT22;62678;52.130;5.584;2022-09-28T00:44:35;7.90;99.90
11963;DHT22;62678;52.130;5.584;2022-09-28T00:47:08;7.90;99.90
11963;DHT22;62678;52.130;5.584;2022-09-28T00:49:42;7.90;99.90
11963;DHT22;62678;52.130;5.584;2022-09-28T00:52:12;7.90;99.90
11963;DHT22;62678;52.130;5.584;2022-09-28T00:54:41;7.80;99.90
11963;DHT22;62678;52.130;5.584;2022-09-28T00:57:09;7.90;99.90
11963;DHT22;62678;52.130;5.584;2022-09-28T00:59:37;7.80;99.90
11963;DHT22;62678;52.130;5.584;2022-09-28T01:02:05;7.90;99.90
11963;DHT22;62678;52.130;5.584;2022-09-28T01:04:32;7.90;99.90
11963;DHT22;62678;52.130;5.584;2022-09-28T01:06:59;7.80;99.90
11963;DHT22;62678;52.130;5.584;2022-09-28T01:09:26;7.80;99.90
11963;DHT22;62678;52.130;5.584;2022-09-28T01:11:54;7.80;99.90
11963;DHT22;62678;52.130;5.584;2022-09-28T01:14:21;7.80;99.90
11963;DHT22;62678;52.130;5.584;2022-09-28T01:16:59;7.80;99.90
11963;DHT22;62678;52.130;5.584;2022-09-28T01:19:58;7.80;99.90
11963;DHT22;62678;52.130;5.584;2022-09-28T01:22:48;7.90;99.90
11963;DHT22;62678;52.130;5.584;2022-09-28T01:25:29;7.80;99.90
11963;DHT22;62678;52.130;5.584;2022-09-28T01:28:10;7.80;99.90
11963;DHT22;62678;52.130;5.584;2022-09-28T01:30:42;7.90;99.90
11963;DHT22;62678;52.130;5.584;2022-09-28T01:33:17;8.00;99.90
11963;DHT22;62678;52.130;5.584;2022-09-28T01:35:50;8.00;99.90
11963;DHT22;62678;52.130;5.584;2022-09-28T01:38:21;8.10;99.90
11963;DHT22;62678;52.130;5.584;2022-09-28T01:40:50;8.10;99.90
11963;DHT22;62678;52.130;5.584;2022-09-28T01:43:22;8.20;99.90
11963;DHT22;62678;52.130;5.584;2022-09-28T01:45:52;8.30;99.90
11963;DHT22;62678;52.130;5.584;2022-09-28T01:48:23;8.40;99.90
11963;DHT22;62678;52.130;5.584;2022-09-28T01:50:56;8.40;99.90
11963;DHT22;62678;52.130;5.584;2022-09-28T01:53:27;8.40;99.90
11963;DHT22;62678;52.130;5.584;2022-09-28T01:56:00;8.40;99.90
11963;DHT22;62678;52.130;5.584;2022-09-28T01:58:31;8.50;99.90
11963;DHT22;62678;52.130;5.584;2022-09-28T02:01:03;8.50;99.90
11963;DHT22;62678;52.130;5.584;2022-09-28T02:03:34;8.60;99.90
11963;DHT22;62678;52.130;5.584;2022-09-28T02:06:06;8.50;99.90
11963;DHT22;62678;52.130;5.584;2022-09-28T02:08:39;8.50;99.90
11963;DHT22;62678;52.130;5.584;2022-09-28T02:11:12;8.50;99.90
11963;DHT22;62678;52.130;5.584;2022-09-28T02:13:43;8.40;99.90
11963;DHT22;62678;52.130;5.584;2022-09-28T02:16:16;8.40;99.90
11963;DHT22;62678;52.130;5.584;2022-09-28T02:18:45;8.40;99.90
11963;DHT22;62678;52.130;5.584;2022-09-28T02:21:15;8.40;99.90
11963;DHT22;62678;52.130;5.584;2022-09-28T02:23:50;8.40;99.90
11963;DHT22;62678;52.130;5.584;2022-09-28T02:26:19;8.50;99.90
11963;DHT22;62678;52.130;5.584;2022-09-28T02:28:49;8.50;99.90
11963;DHT22;62678;52.130;5.584;2022-09-28T02:31:16;8.50;99.90
11963;DHT22;62678;52.130;5.584;2022-09-28T02:33:43;8.40;99.90
11963;DHT22;62678;52.130;5.584;2022-09-28T02:36:11;8.50;99.90
11963;DHT22;62678;52.130;5.584;2022-09-28T02:38:38;8.50;99.90
11963;DHT22;62678;52.130;5.584;2022-09-28T02:41:10;8.50;99.90
11963;DHT22;62678;52.130;5.584;2022-09-28T02:43:51;8.50;99.90
11963;DHT22;62678;52.130;5.584;2022-09-28T02:46:27;8.50;99.90
11963;DHT22;62678;52.130;5.584;2022-09-28T02:49:07;8.40;99.90
11963;DHT22;62678;52.130;5.584;2022-09-28T02:51:44;8.40;99.90
11963;DHT22;62678;52.130;5.584;2022-09-28T02:54:29;8.30;99.90
11963;DHT22;62678;52.130;5.584;2022-09-28T02:57:09;8.30;99.90
11963;DHT22;62678;52.130;5.584;2022-09-28T02:59:48;8.20;99.90
11963;DHT22;62678;52.130;5.584;2022-09-28T03:02:24;8.30;99.90
11963;DHT22;62678;52.130;5.584;2022-09-28T03:05:15;8.30;99.90
11963;DHT22;62678;52.130;5.584;2022-09-28T03:07:49;8.40;99.90
11963;DHT22;62678;52.130;5.584;2022-09-28T03:10:23;8.50;99.90
11963;DHT22;62678;52.130;5.584;2022-09-28T03:12:52;8.50;99.90
11963;DHT22;62678;52.130;5.584;2022-09-28T03:15:24;8.40;99.90
11963;DHT22;62678;52.130;5.584;2022-09-28T03:17:51;8.50;99.90
11963;DHT22;62678;52.130;5.584;2022-09-28T03:20:18;8.40;99.90
11963;DHT22;62678;52.130;5.584;2022-09-28T03:22:45;8.40;99.90
11963;DHT22;62678;52.130;5.584;2022-09-28T03:25:12;8.40;99.90
11963;DHT22;62678;52.130;5.584;2022-09-28T03:27:40;8.40;99.90
11963;DHT22;62678;52.130;5.584;2022-09-28T03:30:08;8.40;99.90
11963;DHT22;62678;52.130;5.584;2022-09-28T03:32:36;8.30;99.90
11963;DHT22;62678;52.130;5.584;2022-09-28T03:35:04;8.20;99.90
11963;DHT22;62678;52.130;5.584;2022-09-28T03:37:32;8.20;99.90
11963;DHT22;62678;52.130;5.584;2022-09-28T03:39:59;8.10;99.90
11963;DHT22;62678;52.130;5.584;2022-09-28T03:42:26;8.10;99.90
11963;DHT22;62678;52.130;5.584;2022-09-28T03:44:52;8.10;99.90
11963;DHT22;62678;52.130;5.584;2022-09-28T03:47:19;8.20;99.90
11963;DHT22;62678;52.130;5.584;2022-09-28T03:49:47;8.10;99.90
11963;DHT22;62678;52.130;5.584;2022-09-28T03:52:14;8.10;99.90
11963;DHT22;62678;52.130;5.584;2022-09-28T03:54:41;8.00;99.90
11963;DHT22;62678;52.130;5.584;2022-09-28T03:57:08;8.00;99.90
11963;DHT22;62678;52.130;5.584;2022-09-28T03:59:34;7.90;99.90
11963;DHT22;62678;52.130;5.584;2022-09-28T04:02:03;7.90;99.90
11963;DHT22;62678;52.130;5.584;2022-09-28T04:04:30;7.90;99.90
11963;DHT22;62678;52.130;5.584;2022-09-28T04:06:58;7.80;99.90
11963;DHT22;62678;52.130;5.584;2022-09-28T04:09:24;7.80;99.90
11963;DHT22;62678;52.130;5.584;2022-09-28T04:11:51;7.70;99.90
11963;DHT22;62678;52.130;5.584;2022-09-28T04:14:18;7.70;99.90
11963;DHT22;62678;52.130;5.584;2022-09-28T04:16:45;7.60;99.90
11963;DHT22;62678;52.130;5.584;2022-09-28T04:19:13;7.60;99.90
11963;DHT22;62678;52.130;5.584;2022-09-28T04:21:40;7.50;99.90
11963;DHT22;62678;52.130;5.584;2022-09-28T04:24:08;7.40;99.90
11963;DHT22;62678;52.130;5.584;2022-09-28T04:26:36;7.40;99.90
11963;DHT22;62678;52.130;5.584;2022-09-28T04:29:02;7.40;99.90
11963;DHT22;62678;52.130;5.584;2022-09-28T04:31:42;7.30;99.90
11963;DHT22;62678;52.130;5.584;2022-09-28T04:34:10;7.40;99.90
11963;DHT22;62678;52.130;5.584;2022-09-28T04:36:40;7.30;99.90
11963;DHT22;62678;52.130;5.584;2022-09-28T04:39:09;7.30;99.90
11963;DHT22;62678;52.130;5.584;2022-09-28T04:41:35;7.20;99.90
11963;DHT22;62678;52.130;5.584;2022-09-28T04:44:02;7.10;99.90
11963;DHT22;62678;52.130;5.584;2022-09-28T04:46:29;7.00;99.90
11963;DHT22;62678;52.130;5.584;2022-09-28T04:48:56;7.00;99.90
11963;DHT22;62678;52.130;5.584;2022-09-28T04:51:23;7.00;99.90
11963;DHT22;62678;52.130;5.584;2022-09-28T04:53:50;7.00;99.90
11963;DHT22;62678;52.130;5.584;2022-09-28T04:56:18;7.00;99.90
11963;DHT22;62678;52.130;5.584;2022-09-28T04:58:45;6.90;99.90
11963;DHT22;62678;52.130;5.584;2022-09-28T05:01:13;6.90;99.90
11963;DHT22;62678;52.130;5.584;2022-09-28T05:03:41;6.90;99.90
11963;DHT22;62678;52.130;5.584;2022-09-28T05:06:08;6.90;99.90
11963;DHT22;62678;52.130;5.584;2022-09-28T05:08:38;6.90;99.90
11963;DHT22;62678;52.130;5.584;2022-09-28T05:11:07;6.90;99.90
11963;DHT22;62678;52.130;5.584;2022-09-28T05:13:39;6.80;99.90
11963;DHT22;62678;52.130;5.584;2022-09-28T05:16:07;6.80;99.90
11963;DHT22;62678;52.130;5.584;2022-09-28T05:18:34;6.80;99.90
11963;DHT22;62678;52.130;5.584;2022-09-28T05:21:01;6.80;99.90
11963;DHT22;62678;52.130;5.584;2022-09-28T05:23:28;6.70;99.90
11963;DHT22;62678;52.130;5.584;2022-09-28T05:25:54;6.70;99.90
11963;DHT22;62678;52.130;5.584;2022-09-28T05:28:25;6.70;99.90
11963;DHT22;62678;52.130;5.584;2022-09-28T05:30:57;6.60;99.90
11963;DHT22;62678;52.130;5.584;2022-09-28T05:33:24;6.60;99.90
11963;DHT22;62678;52.130;5.584;2022-09-28T05:35:51;6.60;99.90
11963;DHT22;62678;52.130;5.584;2022-09-28T05:38:18;6.70;99.90
11963;DHT22;62678;52.130;5.584;2022-09-28T05:40:44;6.70;99.90
11963;DHT22;62678;52.130;5.584;2022-09-28T05:43:11;6.60;99.90
11963;DHT22;62678;52.130;5.584;2022-09-28T05:45:38;6.60;99.90
11963;DHT22;62678;52.130;5.584;2022-09-28T05:48:06;6.60;99.90
11963;DHT22;62678;52.130;5.584;2022-09-28T05:50:33;6.60;99.90
11963;DHT22;62678;52.130;5.584;2022-09-28T05:53:01;6.60;99.90
11963;DHT22;62678;52.130;5.584;2022-09-28T05:55:28;6.60;99.90
11963;DHT22;62678;52.130;5.584;2022-09-28T05:57:57;6.60;99.90
11963;DHT22;62678;52.130;5.584;2022-09-28T06:00:25;6.60;99.90
11963;DHT22;62678;52.130;5.584;2022-09-28T06:02:56;6.60;99.90
11963;DHT22;62678;52.130;5.584;2022-09-28T06:05:25;6.60;99.90
11963;DHT22;62678;52.130;5.584;2022-09-28T06:07:53;6.70;99.90
11963;DHT22;62678;52.130;5.584;2022-09-28T06:10:20;6.60;99.90
11963;DHT22;62678;52.130;5.584;2022-09-28T06:12:51;6.70;99.90
11963;DHT22;62678;52.130;5.584;2022-09-28T06:15:18;6.70;99.90
11963;DHT22;62678;52.130;5.584;2022-09-28T06:17:44;6.70;99.90
11963;DHT22;62678;52.130;5.584;2022-09-28T06:20:11;6.80;99.90
11963;DHT22;62678;52.130;5.584;2022-09-28T06:22:39;6.90;99.90
11963;DHT22;62678;52.130;5.584;2022-09-28T06:25:07;6.90;99.90
11963;DHT22;62678;52.130;5.584;2022-09-28T06:27:34;7.00;99.90
11963;DHT22;62678;52.130;5.584;2022-09-28T06:30:02;7.00;99.90
11963;DHT22;62678;52.130;5.584;2022-09-28T06:32:29;7.10;99.90
11963;DHT22;62678;52.130;5.584;2022-09-28T06:34:56;7.20;99.90
11963;DHT22;62678;52.130;5.584;2022-09-28T06:37:22;7.30;99.90
11963;DHT22;62678;52.130;5.584;2022-09-28T06:39:52;7.40;99.90
11963;DHT22;62678;52.130;5.584;2022-09-28T06:42:19;7.50;99.90
11963;DHT22;62678;52.130;5.584;2022-09-28T06:44:46;7.60;99.90
11963;DHT22;62678;52.130;5.584;2022-09-28T06:47:13;7.70;99.90
11963;DHT22;62678;52.130;5.584;2022-09-28T06:49:40;7.70;99.90
11963;DHT22;62678;52.130;5.584;2022-09-28T06:52:07;7.80;99.90
11963;DHT22;62678;52.130;5.584;2022-09-28T06:54:34;7.80;99.90
11963;DHT22;62678;52.130;5.584;2022-09-28T06:57:02;7.90;99.90
11963;DHT22;62678;52.130;5.584;2022-09-28T06:59:29;8.00;99.90
11963;DHT22;62678;52.130;5.584;2022-09-28T07:01:56;8.10;99.90
11963;DHT22;62678;52.130;5.584;2022-09-28T07:04:24;8.20;99.90
11963;DHT22;62678;52.130;5.584;2022-09-28T07:06:51;8.20;99.90
11963;DHT22;62678;52.130;5.584;2022-09-28T07:09:18;8.30;99.90
11963;DHT22;62678;52.130;5.584;2022-09-28T07:11:45;8.40;99.90
11963;DHT22;62678;52.130;5.584;2022-09-28T07:14:13;8.50;99.90
11963;DHT22;62678;52.130;5.584;2022-09-28T07:16:40;8.60;99.90
11963;DHT22;62678;52.130;5.584;2022-09-28T07:19:07;8.70;99.90
11963;DHT22;62678;52.130;5.584;2022-09-28T07:21:34;8.80;99.90
11963;DHT22;62678;52.130;5.584;2022-09-28T07:24:01;8.90;99.90
11963;DHT22;62678;52.130;5.584;2022-09-28T07:26:27;8.90;99.90
11963;DHT22;62678;52.130;5.584;2022-09-28T07:28:57;9.10;99.90
11963;DHT22;62678;52.130;5.584;2022-09-28T07:31:25;9.10;99.90
11963;DHT22;62678;52.130;5.584;2022-09-28T07:33:52;9.20;99.90
11963;DHT22;62678;52.130;5.584;2022-09-28T07:36:21;9.40;99.90
11963;DHT22;62678;52.130;5.584;2022-09-28T07:38:47;9.40;99.90
11963;DHT22;62678;52.130;5.584;2022-09-28T07:41:14;9.50;99.90
11963;DHT22;62678;52.130;5.584;2022-09-28T07:43:46;9.60;99.90
11963;DHT22;62678;52.130;5.584;2022-09-28T07:46:14;9.70;99.90
11963;DHT22;62678;52.130;5.584;2022-09-28T07:48:43;9.70;99.90
11963;DHT22;62678;52.130;5.584;2022-09-28T07:51:10;9.80;99.90
11963;DHT22;62678;52.130;5.584;2022-09-28T07:53:38;9.80;99.90
11963;DHT22;62678;52.130;5.584;2022-09-28T07:56:06;9.90;99.90
11963;DHT22;62678;52.130;5.584;2022-09-28T07:58:35;10.00;99.90
11963;DHT22;62678;52.130;5.584;2022-09-28T08:01:04;10.10;99.90
11963;DHT22;62678;52.130;5.584;2022-09-28T08:03:32;10.20;99.90
11963;DHT22;62678;52.130;5.584;2022-09-28T08:06:01;10.20;99.90
11963;DHT22;62678;52.130;5.584;2022-09-28T08:08:28;10.20;99.90
11963;DHT22;62678;52.130;5.584;2022-09-28T08:10:56;10.30;99.90
11963;DHT22;62678;52.130;5.584;2022-09-28T08:13:23;10.40;99.90
11963;DHT22;62678;52.130;5.584;2022-09-28T08:15:51;10.50;99.90
11963;DHT22;62678;52.130;5.584;2022-09-28T08:18:18;10.50;99.90
11963;DHT22;62678;52.130;5.584;2022-09-28T08:20:45;10.60;99.90
11963;DHT22;62678;52.130;5.584;2022-09-28T08:23:31;10.60;99.90
11963;DHT22;62678;52.130;5.584;2022-09-28T08:25:58;10.80;99.90
11963;DHT22;62678;52.130;5.584;2022-09-28T08:28:24;10.90;99.90
11963;DHT22;62678;52.130;5.584;2022-09-28T08:30:51;10.90;99.90
11963;DHT22;62678;52.130;5.584;2022-09-28T08:33:19;10.90;99.90
11963;DHT22;62678;52.130;5.584;2022-09-28T08:35:47;11.00;99.90
11963;DHT22;62678;52.130;5.584;2022-09-28T08:38:14;11.00;99.90
11963;DHT22;62678;52.130;5.584;2022-09-28T08:40:47;11.20;99.90
11963;DHT22;62678;52.130;5.584;2022-09-28T08:43:25;11.40;99.90
11963;DHT22;62678;52.130;5.584;2022-09-28T08:45:56;11.40;99.90
11963;DHT22;62678;52.130;5.584;2022-09-28T08:48:27;11.40;99.90
11963;DHT22;62678;52.130;5.584;2022-09-28T08:51:16;11.60;99.90
11963;DHT22;62678;52.130;5.584;2022-09-28T08:53:54;11.60;99.90
11963;DHT22;62678;52.130;5.584;2022-09-28T08:56:28;11.60;99.90
11963;DHT22;62678;52.130;5.584;2022-09-28T08:58:58;11.60;99.90
11963;DHT22;62678;52.130;5.584;2022-09-28T09:01:31;11.70;99.90
11963;DHT22;62678;52.130;5.584;2022-09-28T09:03:58;11.80;99.90
11963;DHT22;62678;52.130;5.584;2022-09-28T09:06:33;12.00;99.90
11963;DHT22;62678;52.130;5.584;2022-09-28T09:09:09;12.10;99.90
11963;DHT22;62678;52.130;5.584;2022-09-28T09:11:52;12.30;99.90
11963;DHT22;62678;52.130;5.584;2022-09-28T09:17:26;12.60;99.90
11963;DHT22;62678;52.130;5.584;2022-09-28T09:20:04;12.70;99.90
11963;DHT22;62678;52.130;5.584;2022-09-28T09:22:39;12.70;99.90
11963;DHT22;62678;52.130;5.584;2022-09-28T09:25:16;12.60;99.90
11963;DHT22;62678;52.130;5.584;2022-09-28T09:28:07;12.70;99.90
11963;DHT22;62678;52.130;5.584;2022-09-28T09:30:42;12.80;99.90
11963;DHT22;62678;52.130;5.584;2022-09-28T09:33:33;12.90;99.90
11963;DHT22;62678;52.130;5.584;2022-09-28T09:36:10;12.90;99.90
11963;DHT22;62678;52.130;5.584;2022-09-28T09:38:47;13.00;99.90
11963;DHT22;62678;52.130;5.584;2022-09-28T09:41:25;13.00;99.90
11963;DHT22;62678;52.130;5.584;2022-09-28T09:44:10;13.00;99.90
11963;DHT22;62678;52.130;5.584;2022-09-28T09:46:44;13.10;99.90
11963;DHT22;62678;52.130;5.584;2022-09-28T09:49:15;13.10;99.90
11963;DHT22;62678;52.130;5.584;2022-09-28T09:51:48;13.30;99.90
11963;DHT22;62678;52.130;5.584;2022-09-28T09:54:20;13.40;99.90
11963;DHT22;62678;52.130;5.584;2022-09-28T09:56:52;13.40;99.90
11963;DHT22;62678;52.130;5.584;2022-09-28T09:59:26;13.50;99.90
11963;DHT22;62678;52.130;5.584;2022-09-28T10:02:00;13.60;99.90
11963;DHT22;62678;52.130;5.584;2022-09-28T10:04:31;13.40;99.90
11963;DHT22;62678;52.130;5.584;2022-09-28T10:07:02;13.30;99.90
11963;DHT22;62678;52.130;5.584;2022-09-28T10:09:34;13.50;99.90
11963;DHT22;62678;52.130;5.584;2022-09-28T10:12:02;13.60;99.90
11963;DHT22;62678;52.130;5.584;2022-09-28T10:14:30;13.80;99.90
11963;DHT22;62678;52.130;5.584;2022-09-28T10:16:57;14.10;99.90
11963;DHT22;62678;52.130;5.584;2022-09-28T10:19:30;14.10;99.90
11963;DHT22;62678;52.130;5.584;2022-09-28T10:21:58;14.10;99.90
11963;DHT22;62678;52.130;5.584;2022-09-28T10:24:29;14.30;99.90
11963;DHT22;62678;52.130;5.584;2022-09-28T10:27:00;14.50;99.90
11963;DHT22;62678;52.130;5.584;2022-09-28T10:29:39;14.50;99.90
11963;DHT22;62678;52.130;5.584;2022-09-28T10:32:19;14.60;99.90
11963;DHT22;62678;52.130;5.584;2022-09-28T10:34:46;14.50;99.90
11963;DHT22;62678;52.130;5.584;2022-09-28T10:37:14;14.30;99.90
11963;DHT22;62678;52.130;5.584;2022-09-28T10:39:46;14.10;99.90
11963;DHT22;62678;52.130;5.584;2022-09-28T10:42:19;14.30;99.90
11963;DHT22;62678;52.130;5.584;2022-09-28T10:44:57;14.40;99.90
11963;DHT22;62678;52.130;5.584;2022-09-28T10:47:28;14.60;99.90
11963;DHT22;62678;52.130;5.584;2022-09-28T10:49:57;14.80;99.90
11963;DHT22;62678;52.130;5.584;2022-09-28T10:52:34;14.70;99.90
11963;DHT22;62678;52.130;5.584;2022-09-28T10:55:03;14.80;99.90
11963;DHT22;62678;52.130;5.584;2022-09-28T10:57:48;14.90;99.90
11963;DHT22;62678;52.130;5.584;2022-09-28T11:00:30;14.70;99.90
11963;DHT22;62678;52.130;5.584;2022-09-28T11:02:57;14.60;99.90
11963;DHT22;62678;52.130;5.584;2022-09-28T11:05:25;14.70;99.90
11963;DHT22;62678;52.130;5.584;2022-09-28T11:07:53;14.80;99.90
11963;DHT22;62678;52.130;5.584;2022-09-28T11:10:22;14.90;99.90
11963;DHT22;62678;52.130;5.584;2022-09-28T11:12:51;14.90;99.90
11963;DHT22;62678;52.130;5.584;2022-09-28T11:15:23;14.80;99.90
11963;DHT22;62678;52.130;5.584;2022-09-28T11:17:50;14.70;99.90
11963;DHT22;62678;52.130;5.584;2022-09-28T11:20:33;14.90;99.90
11963;DHT22;62678;52.130;5.584;2022-09-28T11:23:16;14.90;99.90
11963;DHT22;62678;52.130;5.584;2022-09-28T11:25:55;14.80;99.90
11963;DHT22;62678;52.130;5.584;2022-09-28T11:28:28;14.70;99.90
11963;DHT22;62678;52.130;5.584;2022-09-28T11:30:57;14.80;99.90
11963;DHT22;62678;52.130;5.584;2022-09-28T11:33:29;14.90;99.90
11963;DHT22;62678;52.130;5.584;2022-09-28T11:36:09;15.30;99.90
11963;DHT22;62678;52.130;5.584;2022-09-28T11:38:40;15.40;99.90
11963;DHT22;62678;52.130;5.584;2022-09-28T11:41:23;15.40;99.90
11963;DHT22;62678;52.130;5.584;2022-09-28T11:44:01;15.50;99.90
11963;DHT22;62678;52.130;5.584;2022-09-28T11:46:37;15.70;99.90
11963;DHT22;62678;52.130;5.584;2022-09-28T11:49:28;15.70;99.90
11963;DHT22;62678;52.130;5.584;2022-09-28T11:51:58;15.80;99.90
11963;DHT22;62678;52.130;5.584;2022-09-28T11:54:31;15.60;99.90
11963;DHT22;62678;52.130;5.584;2022-09-28T11:57:01;15.60;99.90
11963;DHT22;62678;52.130;5.584;2022-09-28T11:59:31;15.50;99.90
11963;DHT22;62678;52.130;5.584;2022-09-28T12:02:08;15.70;99.90
11963;DHT22;62678;52.130;5.584;2022-09-28T12:04:39;15.90;99.90
11963;DHT22;62678;52.130;5.584;2022-09-28T12:07:12;16.10;99.90
11963;DHT22;62678;52.130;5.584;2022-09-28T12:09:45;16.20;99.90
11963;DHT22;62678;52.130;5.584;2022-09-28T12:12:20;16.20;99.90
11963;DHT22;62678;52.130;5.584;2022-09-28T12:14:53;16.10;99.90
11963;DHT22;62678;52.130;5.584;2022-09-28T12:17:24;16.10;99.90
11963;DHT22;62678;52.130;5.584;2022-09-28T12:19:54;16.00;99.90
11963;DHT22;62678;52.130;5.584;2022-09-28T12:22:24;15.80;99.90
11963;DHT22;62678;52.130;5.584;2022-09-28T12:24:55;15.80;99.90
11963;DHT22;62678;52.130;5.584;2022-09-28T12:27:27;15.40;99.90
11963;DHT22;62678;52.130;5.584;2022-09-28T12:30:01;15.40;99.90
11963;DHT22;62678;52.130;5.584;2022-09-28T12:32:34;15.60;99.90
11963;DHT22;62678;52.130;5.584;2022-09-28T12:35:11;15.40;99.90
11963;DHT22;62678;52.130;5.584;2022-09-28T12:37:55;15.40;99.90
11963;DHT22;62678;52.130;5.584;2022-09-28T12:40:34;15.40;99.90
11963;DHT22;62678;52.130;5.584;2022-09-28T12:46:17;15.50;99.90
11963;DHT22;62678;52.130;5.584;2022-09-28T12:51:47;14.90;99.90
11963;DHT22;62678;52.130;5.584;2022-09-28T12:57:36;12.90;99.90
11963;DHT22;62678;52.130;5.584;2022-09-28T13:00:10;12.00;99.90
11963;DHT22;62678;52.130;5.584;2022-09-28T13:03:09;11.50;99.90
11963;DHT22;62678;52.130;5.584;2022-09-28T13:06:07;11.40;99.90
11963;DHT22;62678;52.130;5.584;2022-09-28T13:08:47;11.40;99.90
11963;DHT22;62678;52.130;5.584;2022-09-28T13:11:25;11.40;99.90
11963;DHT22;62678;52.130;5.584;2022-09-28T13:14:08;11.50;99.90
11963;DHT22;62678;52.130;5.584;2022-09-28T13:16:42;11.50;99.90
11963;DHT22;62678;52.130;5.584;2022-09-28T13:19:20;11.50;99.90
11963;DHT22;62678;52.130;5.584;2022-09-28T13:21:55;11.50;99.90
11963;DHT22;62678;52.130;5.584;2022-09-28T13:24:26;11.40;99.90
11963;DHT22;62678;52.130;5.584;2022-09-28T13:26:56;11.50;99.90
11963;DHT22;62678;52.130;5.584;2022-09-28T13:29:24;11.50;99.90
11963;DHT22;62678;52.130;5.584;2022-09-28T13:31:53;11.60;99.90
11963;DHT22;62678;52.130;5.584;2022-09-28T13:34:23;11.80;99.90
11963;DHT22;62678;52.130;5.584;2022-09-28T13:37:19;11.90;99.90
11963;DHT22;62678;52.130;5.584;2022-09-28T13:39:50;12.20;99.90
11963;DHT22;62678;52.130;5.584;2022-09-28T13:45:27;12.40;99.90
11963;DHT22;62678;52.130;5.584;2022-09-28T13:48:08;12.40;99.90
11963;DHT22;62678;52.130;5.584;2022-09-28T13:50:55;12.30;99.90
11963;DHT22;62678;52.130;5.584;2022-09-28T13:53:40;12.30;99.90
11963;DHT22;62678;52.130;5.584;2022-09-28T13:56:21;12.30;99.90
11963;DHT22;62678;52.130;5.584;2022-09-28T13:58:52;12.30;99.90
11963;DHT22;62678;52.130;5.584;2022-09-28T14:01:23;12.50;99.90
11963;DHT22;62678;52.130;5.584;2022-09-28T14:03:55;12.60;99.90
11963;DHT22;62678;52.130;5.584;2022-09-28T14:06:36;12.70;99.90
11963;DHT22;62678;52.130;5.584;2022-09-28T14:09:41;12.80;99.90
11963;DHT22;62678;52.130;5.584;2022-09-28T14:12:43;12.70;99.90
11963;DHT22;62678;52.130;5.584;2022-09-28T14:15:43;12.80;99.90
11963;DHT22;62678;52.130;5.584;2022-09-28T14:18:21;12.90;99.90
11963;DHT22;62678;52.130;5.584;2022-09-28T14:21:20;13.00;99.90
11963;DHT22;62678;52.130;5.584;2022-09-28T14:24:11;13.10;99.90
11963;DHT22;62678;52.130;5.584;2022-09-28T14:27:16;13.10;99.90
11963;DHT22;62678;52.130;5.584;2022-09-28T14:29:48;13.30;99.90
11963;DHT22;62678;52.130;5.584;2022-09-28T14:32:22;13.40;99.90
11963;DHT22;62678;52.130;5.584;2022-09-28T14:34:55;13.50;99.90
11963;DHT22;62678;52.130;5.584;2022-09-28T14:37:26;13.60;99.90
11963;DHT22;62678;52.130;5.584;2022-09-28T14:40:17;13.40;99.90
11963;DHT22;62678;52.130;5.584;2022-09-28T14:43:23;13.30;99.90
11963;DHT22;62678;52.130;5.584;2022-09-28T14:45:51;13.10;99.90
11963;DHT22;62678;52.130;5.584;2022-09-28T14:48:46;13.20;99.90
11963;DHT22;62678;52.130;5.584;2022-09-28T14:51:56;13.20;99.90
11963;DHT22;62678;52.130;5.584;2022-09-28T14:54:28;13.20;99.90
11963;DHT22;62678;52.130;5.584;2022-09-28T14:57:06;13.30;99.90
11963;DHT22;62678;52.130;5.584;2022-09-28T14:59:40;13.50;99.90
11963;DHT22;62678;52.130;5.584;2022-09-28T15:02:25;13.50;99.90
11963;DHT22;62678;52.130;5.584;2022-09-28T15:04:56;13.40;99.90
11963;DHT22;62678;52.130;5.584;2022-09-28T15:07:26;13.00;99.90
11963;DHT22;62678;52.130;5.584;2022-09-28T15:09:55;12.90;99.90
11963;DHT22;62678;52.130;5.584;2022-09-28T15:12:25;12.90;99.90
11963;DHT22;62678;52.130;5.584;2022-09-28T15:14:55;12.90;99.90
11963;DHT22;62678;52.130;5.584;2022-09-28T15:17:25;12.90;99.90
11963;DHT22;62678;52.130;5.584;2022-09-28T15:20:02;12.80;99.90
11963;DHT22;62678;52.130;5.584;2022-09-28T15:22:33;12.70;99.90
11963;DHT22;62678;52.130;5.584;2022-09-28T15:25:01;12.60;99.90
11963;DHT22;62678;52.130;5.584;2022-09-28T15:27:34;12.60;99.90
11963;DHT22;62678;52.130;5.584;2022-09-28T15:30:17;12.40;99.90
11963;DHT22;62678;52.130;5.584;2022-09-28T15:32:46;12.30;99.90
11963;DHT22;62678;52.130;5.584;2022-09-28T15:35:20;12.20;99.90
11963;DHT22;62678;52.130;5.584;2022-09-28T15:37:46;12.20;99.90
11963;DHT22;62678;52.130;5.584;2022-09-28T15:40:18;12.10;99.90
11963;DHT22;62678;52.130;5.584;2022-09-28T15:42:47;12.10;99.90
11963;DHT22;62678;52.130;5.584;2022-09-28T15:45:21;12.20;99.90
11963;DHT22;62678;52.130;5.584;2022-09-28T15:47:53;12.30;99.90
11963;DHT22;62678;52.130;5.584;2022-09-28T15:50:26;12.40;99.90
11963;DHT22;62678;52.130;5.584;2022-09-28T15:52:55;12.40;99.90
11963;DHT22;62678;52.130;5.584;2022-09-28T15:55:26;12.40;99.90
11963;DHT22;62678;52.130;5.584;2022-09-28T15:58:06;12.80;99.90
11963;DHT22;62678;52.130;5.584;2022-09-28T16:00:33;13.20;99.90
11963;DHT22;62678;52.130;5.584;2022-09-28T16:03:02;13.40;99.90
11963;DHT22;62678;52.130;5.584;2022-09-28T16:05:36;13.80;99.90
11963;DHT22;62678;52.130;5.584;2022-09-28T16:08:12;13.90;99.90
11963;DHT22;62678;52.130;5.584;2022-09-28T16:10:52;13.80;99.90
11963;DHT22;62678;52.130;5.584;2022-09-28T16:13:21;13.80;99.90
11963;DHT22;62678;52.130;5.584;2022-09-28T16:15:53;14.10;99.90
11963;DHT22;62678;52.130;5.584;2022-09-28T16:18:23;14.60;99.90
11963;DHT22;62678;52.130;5.584;2022-09-28T16:20:53;14.90;99.90
11963;DHT22;62678;52.130;5.584;2022-09-28T16:23:24;14.50;99.90
11963;DHT22;62678;52.130;5.584;2022-09-28T16:25:54;14.40;99.90